Deer Lodge (38S)
Deer Lodge, MT
Field Elevation: 4692
Lat: 49°23.27N  Long: 112°45.89W
CTAF/Unicom Freq: 120.0250
   
     For Weather-by-Phone, call 406-846-1177
Weather Advisories
11/26/2014 10:53 Z
Altimeter 30.13" Hg
Wind 350° @ 0 KT
Gusts --
Visibility 1 SM
Temperature -2° C (28° F)
Dewpoint -2° C (28° F)
Relative Humidity 96%
Density Altitude --
Condensation Altitude 5,000 feet
  Wind and Runways
Indicated Runway = 31
History
 
 
More Info
All DigiWx sites map
Weather Radar
NOAA Forecast
 
Airport IQ 5010
(S59) Libby
(6S5) Ravalli County
 
about DigiWx
 
FAA Disclaimer: The data displayed is for advisory purposes only and is not to be used for flight planning or operations. For official data, please call 406-846-1177 to hear the current automated AWOS voice message.
  METAR 38S 261053Z AUTO 35000KT 1SM M02/M02 A3013